Time;durP1;ratioP1;P1;durP2;ratioP2;P2;SDS_P1;SDS_P2;PMS_P1;PMS_P2;Temp;Humidity;BMP_temperature;BMP_pressure;BME280_temperature;BME280_humidity;BME280_pressure;Samples;Min_cycle;Max_cycle;Signal;HPM_P1;HPM_P2
2021/09/26 00:02:12;;;;;;;5.93;5.00;;;;;;;;;;5017623;28;20476;-82
2021/09/26 00:04:39;;;;;;;7.87;5.73;;;;;;;;;;5031876;28;20801;-82
2021/09/26 00:07:07;;;;;;;5.13;4.70;;;;;;;;;;5032275;28;20444;-79
2021/09/26 00:09:34;;;;;;;4.70;4.20;;;;;;;;;;5030068;28;20571;-83
2021/09/26 00:12:01;;;;;;;6.73;5.37;;;;;;;;;;5030333;28;20725;-79
2021/09/26 00:14:29;;;;;;;5.80;5.30;;;;;;;;;;5019097;28;20788;-86
2021/09/26 00:16:58;;;;;;;5.93;5.23;;;;;;;;;;4997195;28;20488;-80
2021/09/26 00:19:25;;;;;;;5.80;5.30;;;;;;;;;;5041595;28;20473;-82
2021/09/26 00:21:52;;;;;;;5.30;4.80;;;;;;;;;;5071786;28;20453;-78
2021/09/26 00:24:19;;;;;;;5.53;5.03;;;;;;;;;;5044637;28;20454;-83
2021/09/26 00:26:47;;;;;;;8.17;5.50;;;;;;;;;;5054153;28;20442;-84
2021/09/26 00:29:14;;;;;;;5.60;5.10;;;;;;;;;;5048278;28;20953;-80
2021/09/26 00:31:41;;;;;;;6.27;5.67;;;;;;;;;;5046291;28;20437;-84
2021/09/26 00:34:10;;;;;;;5.60;4.93;;;;;;;;;;5051381;28;21188;-83
2021/09/26 00:36:37;;;;;;;4.93;4.50;;;;;;;;;;5048076;28;20459;-82
2021/09/26 00:39:05;;;;;;;5.33;4.83;;;;;;;;;;5048113;28;20821;-83
2021/09/26 00:41:32;;;;;;;5.50;4.47;;;;;;;;;;5067649;28;20446;-81
2021/09/26 00:43:59;;;;;;;5.23;4.73;;;;;;;;;;5072084;28;20454;-82
2021/09/26 00:46:26;;;;;;;5.27;4.80;;;;;;;;;;5068108;28;20427;-82
2021/09/26 00:48:53;;;;;;;5.93;5.10;;;;;;;;;;5068637;28;20839;-80
2021/09/26 00:51:22;;;;;;;6.17;5.20;;;;;;;;;;5044788;28;20433;-83
2021/09/26 00:53:49;;;;;;;7.00;5.53;;;;;;;;;;5048673;28;20456;-82
2021/09/26 00:56:17;;;;;;;7.00;6.10;;;;;;;;;;5065424;28;20436;-80
2021/09/26 00:58:45;;;;;;;5.47;4.97;;;;;;;;;;5053476;28;20461;-80
2021/09/26 01:01:12;;;;;;;5.47;4.87;;;;;;;;;;5065990;28;20457;-81
2021/09/26 01:03:39;;;;;;;6.00;5.40;;;;;;;;;;5069017;28;20412;-80
2021/09/26 01:06:13;;;;;;;5.43;4.93;;;;;;;;;;5053263;28;20476;-81
2021/09/26 01:08:47;;;;;;;7.73;5.90;;;;;;;;;;5073442;28;20513;-78
2021/09/26 01:11:17;;;;;;;6.90;5.30;;;;;;;;;;5070987;28;20405;-79
2021/09/26 01:13:48;;;;;;;6.10;5.30;;;;;;;;;;5017558;28;21336;-81
2021/09/26 01:16:21;;;;;;;6.50;5.33;;;;;;;;;;5047646;28;20413;-79
2021/09/26 01:18:52;;;;;;;7.73;5.63;;;;;;;;;;5032925;28;20833;-85
2021/09/26 01:21:23;;;;;;;5.70;5.10;;;;;;;;;;5023497;28;20457;-82
2021/09/26 01:23:58;;;;;;;6.17;5.20;;;;;;;;;;5050108;28;20799;-80
2021/09/26 01:26:36;;;;;;;6.63;5.83;;;;;;;;;;5048949;28;20486;-82
2021/09/26 01:29:06;;;;;;;6.70;4.67;;;;;;;;;;5038213;28;20435;-79
2021/09/26 01:31:36;;;;;;;8.20;5.10;;;;;;;;;;5047373;28;20411;-82
2021/09/26 01:34:06;;;;;;;5.67;5.17;;;;;;;;;;5035204;28;20942;-81
2021/09/26 01:36:39;;;;;;;5.93;5.40;;;;;;;;;;5050743;28;20441;-81
2021/09/26 01:39:08;;;;;;;6.83;5.10;;;;;;;;;;5041060;28;20496;-77
2021/09/26 01:41:39;;;;;;;7.20;5.70;;;;;;;;;;5034655;28;20458;-81
2021/09/26 01:44:11;;;;;;;7.50;5.93;;;;;;;;;;5043761;28;20445;-82
2021/09/26 01:46:43;;;;;;;8.20;6.13;;;;;;;;;;5036846;28;20416;-80
2021/09/26 01:49:11;;;;;;;7.83;5.97;;;;;;;;;;5042460;28;20482;-82
2021/09/26 01:51:42;;;;;;;6.27;5.47;;;;;;;;;;5020030;28;20685;-82
2021/09/26 01:54:10;;;;;;;6.07;5.47;;;;;;;;;;5019791;28;20470;-78
2021/09/26 01:56:37;;;;;;;6.27;5.47;;;;;;;;;;5028265;28;20457;-82
2021/09/26 01:59:05;;;;;;;6.77;5.70;;;;;;;;;;5036375;28;20477;-78
2021/09/26 02:01:32;;;;;;;5.70;5.10;;;;;;;;;;5040124;28;20454;-79
2021/09/26 02:04:01;;;;;;;6.03;5.47;;;;;;;;;;5046352;28;20949;-82
2021/09/26 02:06:28;;;;;;;5.90;5.40;;;;;;;;;;5050195;28;20460;-78
2021/09/26 02:08:56;;;;;;;7.13;6.20;;;;;;;;;;5041623;28;20457;-83
2021/09/26 02:11:23;;;;;;;8.27;5.70;;;;;;;;;;5035099;28;20467;-80
2021/09/26 02:13:51;;;;;;;6.67;5.60;;;;;;;;;;5035022;28;20416;-80
2021/09/26 02:16:18;;;;;;;7.57;5.70;;;;;;;;;;5030835;28;20436;-78
2021/09/26 02:18:46;;;;;;;6.17;5.60;;;;;;;;;;5049796;28;20503;-80
2021/09/26 02:21:15;;;;;;;6.20;5.60;;;;;;;;;;5050151;28;20424;-77
2021/09/26 02:23:43;;;;;;;7.20;6.07;;;;;;;;;;5032050;28;20458;-81
2021/09/26 02:26:10;;;;;;;6.03;5.40;;;;;;;;;;5031138;28;20794;-81
2021/09/26 02:28:38;;;;;;;6.13;5.53;;;;;;;;;;5048030;28;20456;-81
2021/09/26 02:31:08;;;;;;;6.67;5.80;;;;;;;;;;5039387;28;20459;-80
2021/09/26 02:33:35;;;;;;;8.23;5.50;;;;;;;;;;5043222;28;20504;-82
2021/09/26 02:36:03;;;;;;;7.07;5.97;;;;;;;;;;5039133;28;20427;-79
2021/09/26 02:38:32;;;;;;;6.80;6.20;;;;;;;;;;5053876;28;20491;-82
2021/09/26 02:41:01;;;;;;;5.80;5.20;;;;;;;;;;5045226;28;20984;-84
2021/09/26 02:43:32;;;;;;;6.27;5.67;;;;;;;;;;5052169;28;20796;-79
2021/09/26 02:46:04;;;;;;;6.17;5.57;;;;;;;;;;5056158;28;20416;-84
2021/09/26 02:48:32;;;;;;;8.13;5.73;;;;;;;;;;5030987;28;20432;-80
2021/09/26 02:50:59;;;;;;;7.13;6.17;;;;;;;;;;5041004;28;20476;-81
2021/09/26 02:53:27;;;;;;;6.63;6.03;;;;;;;;;;5039196;28;20413;-80
2021/09/26 02:55:56;;;;;;;6.80;6.10;;;;;;;;;;5048380;28;20515;-78
2021/09/26 02:58:24;;;;;;;6.80;6.10;;;;;;;;;;5036112;28;20471;-82
2021/09/26 03:00:51;;;;;;;7.90;5.83;;;;;;;;;;5038616;28;20480;-81
2021/09/26 03:03:19;;;;;;;7.40;6.70;;;;;;;;;;5046175;28;20426;-80
2021/09/26 03:05:48;;;;;;;6.57;5.97;;;;;;;;;;5042615;28;20433;-81
2021/09/26 03:08:15;;;;;;;7.60;5.43;;;;;;;;;;5054647;28;20419;-79
2021/09/26 03:10:43;;;;;;;7.37;5.90;;;;;;;;;;5053374;28;20435;-79
2021/09/26 03:13:12;;;;;;;6.03;5.43;;;;;;;;;;5018112;28;20443;-79
2021/09/26 03:15:39;;;;;;;6.70;6.07;;;;;;;;;;5041345;28;20410;-85
2021/09/26 03:18:06;;;;;;;8.00;7.30;;;;;;;;;;5043982;28;20992;-85
2021/09/26 03:20:34;;;;;;;8.07;6.47;;;;;;;;;;5066999;28;20855;-80
2021/09/26 03:23:01;;;;;;;7.93;6.27;;;;;;;;;;5054531;28;20431;-78
2021/09/26 03:25:28;;;;;;;6.87;6.17;;;;;;;;;;5041059;28;20429;-78
2021/09/26 03:27:56;;;;;;;7.07;6.43;;;;;;;;;;5053352;28;20412;-82
2021/09/26 03:30:25;;;;;;;7.00;6.30;;;;;;;;;;5044149;28;20449;-80
2021/09/26 03:32:52;;;;;;;6.73;5.43;;;;;;;;;;5045976;28;20480;-82
2021/09/26 03:35:19;;;;;;;6.60;5.93;;;;;;;;;;5052530;28;20425;-79
2021/09/26 03:37:47;;;;;;;6.80;6.20;;;;;;;;;;5044632;28;20447;-79
2021/09/26 03:40:14;;;;;;;6.10;5.57;;;;;;;;;;5063208;28;20498;-80
2021/09/26 03:42:42;;;;;;;5.80;5.20;;;;;;;;;;5063900;28;20424;-85
2021/09/26 03:45:10;;;;;;;6.80;6.03;;;;;;;;;;5023900;28;20435;-81
2021/09/26 03:47:38;;;;;;;6.17;5.43;;;;;;;;;;5023002;28;20911;-81
2021/09/26 03:50:07;;;;;;;6.77;6.00;;;;;;;;;;5050557;28;20435;-80
2021/09/26 03:52:35;;;;;;;7.30;6.30;;;;;;;;;;5042552;28;20442;-83
2021/09/26 03:55:02;;;;;;;6.97;6.27;;;;;;;;;;5063593;28;20429;-83
2021/09/26 03:57:29;;;;;;;7.23;5.33;;;;;;;;;;5066198;28;20421;-82
2021/09/26 03:59:56;;;;;;;6.57;5.97;;;;;;;;;;5052333;28;20474;-81
2021/09/26 04:02:23;;;;;;;6.40;5.80;;;;;;;;;;5041613;28;20457;-80
2021/09/26 04:04:52;;;;;;;7.37;6.60;;;;;;;;;;5051886;28;20766;-78
2021/09/26 04:07:19;;;;;;;6.00;5.40;;;;;;;;;;5044898;28;20455;-81
2021/09/26 04:09:46;;;;;;;6.83;6.13;;;;;;;;;;5039387;28;20482;-80
2021/09/26 04:12:13;;;;;;;7.00;6.17;;;;;;;;;;5039465;28;20467;-78
2021/09/26 04:14:40;;;;;;;7.17;6.47;;;;;;;;;;5051045;28;20434;-81
2021/09/26 04:17:08;;;;;;;7.40;6.27;;;;;;;;;;5020398;28;20440;-79
2021/09/26 04:19:35;;;;;;;6.43;5.83;;;;;;;;;;5028973;28;20472;-78
2021/09/26 04:22:04;;;;;;;7.67;6.97;;;;;;;;;;5028955;28;20511;-81
2021/09/26 04:24:31;;;;;;;7.77;7.07;;;;;;;;;;5031639;28;20449;-80
2021/09/26 04:26:58;;;;;;;7.27;6.53;;;;;;;;;;5010634;28;20430;-81
2021/09/26 04:29:25;;;;;;;7.37;6.50;;;;;;;;;;5024187;28;20462;-83
2021/09/26 04:31:52;;;;;;;7.47;6.50;;;;;;;;;;5027948;28;20449;-82
2021/09/26 04:34:20;;;;;;;7.70;5.43;;;;;;;;;;5024305;28;20463;-83
2021/09/26 04:36:47;;;;;;;7.10;6.50;;;;;;;;;;5029159;28;20835;-80
2021/09/26 04:39:16;;;;;;;7.10;6.40;;;;;;;;;;5030460;28;20500;-79
2021/09/26 04:41:43;;;;;;;9.57;6.17;;;;;;;;;;5023121;28;20439;-80
2021/09/26 04:44:10;;;;;;;6.27;5.67;;;;;;;;;;5025231;28;20462;-83
2021/09/26 04:46:37;;;;;;;7.30;6.60;;;;;;;;;;5031147;28;20439;-79
2021/09/26 04:49:04;;;;;;;7.47;6.77;;;;;;;;;;5033542;28;20434;-84
2021/09/26 04:51:31;;;;;;;6.83;5.93;;;;;;;;;;5033068;28;20961;-81
2021/09/26 04:53:59;;;;;;;6.80;6.13;;;;;;;;;;5016521;28;20473;-82
2021/09/26 04:56:27;;;;;;;7.60;6.90;;;;;;;;;;5026002;28;20434;-81
2021/09/26 04:58:54;;;;;;;7.10;6.40;;;;;;;;;;5022370;28;21025;-81
2021/09/26 05:01:21;;;;;;;7.63;6.93;;;;;;;;;;5031374;28;20937;-83
2021/09/26 05:03:49;;;;;;;7.70;6.90;;;;;;;;;;5029295;28;20470;-83
2021/09/26 05:06:16;;;;;;;12.40;7.17;;;;;;;;;;5024160;28;20842;-79
2021/09/26 05:08:43;;;;;;;7.33;6.60;;;;;;;;;;5028642;28;20440;-79
2021/09/26 05:11:10;;;;;;;7.10;6.40;;;;;;;;;;5027183;28;20505;-82
2021/09/26 05:13:39;;;;;;;7.50;6.80;;;;;;;;;;5032998;28;20417;-80
2021/09/26 05:16:06;;;;;;;7.40;6.70;;;;;;;;;;5020667;28;20436;-81
2021/09/26 05:18:34;;;;;;;8.87;6.87;;;;;;;;;;5026766;28;20485;-83
2021/09/26 05:21:01;;;;;;;8.37;7.00;;;;;;;;;;5049089;28;20815;-79
2021/09/26 05:23:28;;;;;;;7.07;6.40;;;;;;;;;;5036032;28;20438;-81
2021/09/26 05:25:56;;;;;;;7.60;6.10;;;;;;;;;;5031040;28;20456;-81
2021/09/26 05:28:23;;;;;;;8.10;5.97;;;;;;;;;;5027060;28;20936;-80
2021/09/26 05:30:51;;;;;;;6.77;6.17;;;;;;;;;;5036345;28;20778;-82
2021/09/26 05:33:18;;;;;;;7.17;6.47;;;;;;;;;;5034114;28;20448;-80
2021/09/26 05:35:46;;;;;;;6.80;6.20;;;;;;;;;;5029835;28;20437;-82
2021/09/26 05:38:13;;;;;;;7.17;6.47;;;;;;;;;;5030534;28;20410;-81
2021/09/26 05:40:40;;;;;;;8.40;6.43;;;;;;;;;;5021732;28;20453;-79
2021/09/26 05:43:07;;;;;;;9.10;7.10;;;;;;;;;;5020283;28;20434;-82
2021/09/26 05:45:34;;;;;;;7.00;6.40;;;;;;;;;;5034056;28;20416;-80
2021/09/26 05:48:03;;;;;;;7.57;6.87;;;;;;;;;;5033663;28;20506;-82
2021/09/26 05:50:30;;;;;;;6.90;6.30;;;;;;;;;;5045582;28;20448;-82
2021/09/26 05:52:57;;;;;;;8.00;7.20;;;;;;;;;;5046599;28;20638;-79
2021/09/26 05:55:24;;;;;;;7.13;6.43;;;;;;;;;;5017369;28;20976;-81
2021/09/26 05:57:51;;;;;;;7.00;6.30;;;;;;;;;;5032522;28;20415;-81
2021/09/26 06:00:24;;;;;;;7.63;6.87;;;;;;;;;;5017056;28;20487;-80
2021/09/26 06:02:51;;;;;;;8.13;7.27;;;;;;;;;;5039956;28;20457;-81
2021/09/26 06:05:19;;;;;;;7.63;6.33;;;;;;;;;;5037712;28;21018;-82
2021/09/26 06:07:46;;;;;;;7.60;6.90;;;;;;;;;;5032082;28;20442;-82
2021/09/26 06:10:13;;;;;;;7.83;6.93;;;;;;;;;;5033997;28;20783;-83
2021/09/26 06:12:40;;;;;;;8.47;6.87;;;;;;;;;;5019347;28;20447;-80
2021/09/26 06:15:08;;;;;;;6.83;6.23;;;;;;;;;;5030590;28;20458;-79
2021/09/26 06:17:36;;;;;;;7.40;6.40;;;;;;;;;;5020523;28;20972;-80
2021/09/26 06:20:04;;;;;;;9.33;7.17;;;;;;;;;;5018052;28;20461;-79
2021/09/26 06:22:32;;;;;;;7.63;6.53;;;;;;;;;;5020546;28;20440;-85
2021/09/26 06:25:00;;;;;;;6.73;6.13;;;;;;;;;;5041205;28;20519;-79
2021/09/26 06:27:27;;;;;;;7.83;6.90;;;;;;;;;;5045323;28;20417;-78
2021/09/26 06:29:54;;;;;;;8.20;6.80;;;;;;;;;;5045476;28;20476;-81
2021/09/26 06:32:22;;;;;;;6.43;5.83;;;;;;;;;;5044299;28;20820;-81
2021/09/26 06:34:50;;;;;;;6.23;5.63;;;;;;;;;;5047079;28;20788;-83
2021/09/26 06:37:17;;;;;;;7.47;6.77;;;;;;;;;;5050011;28;20465;-83
2021/09/26 06:39:45;;;;;;;7.80;6.30;;;;;;;;;;5051511;28;20995;-80
2021/09/26 06:42:12;;;;;;;10.10;6.37;;;;;;;;;;5044874;28;20461;-83
2021/09/26 06:44:39;;;;;;;7.23;6.63;;;;;;;;;;5054470;28;20412;-82
2021/09/26 06:47:07;;;;;;;9.03;6.97;;;;;;;;;;5049189;28;20799;-82
2021/09/26 06:49:34;;;;;;;7.03;6.40;;;;;;;;;;5054076;28;20449;-83
2021/09/26 06:52:01;;;;;;;9.10;6.90;;;;;;;;;;5052526;28;20475;-81
2021/09/26 06:54:29;;;;;;;9.03;7.30;;;;;;;;;;5051956;28;20445;-80
2021/09/26 06:56:57;;;;;;;7.40;6.57;;;;;;;;;;5049739;28;20442;-82
2021/09/26 06:59:24;;;;;;;7.20;6.47;;;;;;;;;;5049565;28;20485;-77
2021/09/26 07:01:51;;;;;;;7.70;6.10;;;;;;;;;;5053409;28;20938;-82
2021/09/26 07:04:19;;;;;;;7.10;6.40;;;;;;;;;;5046768;28;20457;-79
2021/09/26 07:06:46;;;;;;;8.10;6.80;;;;;;;;;;5050348;28;20821;-77
2021/09/26 07:09:13;;;;;;;7.30;6.60;;;;;;;;;;5031575;28;20492;-76
2021/09/26 07:11:40;;;;;;;7.53;6.73;;;;;;;;;;5050689;28;20453;-77
2021/09/26 07:14:08;;;;;;;6.93;6.10;;;;;;;;;;5048855;28;20966;-83
2021/09/26 07:16:36;;;;;;;7.13;6.53;;;;;;;;;;5050048;28;20449;-80
2021/09/26 07:19:03;;;;;;;6.60;5.93;;;;;;;;;;5046727;28;20463;-78
2021/09/26 07:21:30;;;;;;;6.30;5.70;;;;;;;;;;5033893;28;20450;-81
2021/09/26 07:23:57;;;;;;;6.90;6.30;;;;;;;;;;5024007;28;20504;-77
2021/09/26 07:26:24;;;;;;;6.63;5.93;;;;;;;;;;5032604;28;20945;-79
2021/09/26 07:28:51;;;;;;;7.40;6.10;;;;;;;;;;5032172;28;20446;-78
2021/09/26 07:31:20;;;;;;;7.97;6.33;;;;;;;;;;5021033;28;20971;-77
2021/09/26 07:33:48;;;;;;;6.60;6.00;;;;;;;;;;5029532;28;20574;-79
2021/09/26 07:36:15;;;;;;;7.00;6.30;;;;;;;;;;5043125;28;20450;-77
2021/09/26 07:38:42;;;;;;;6.97;6.37;;;;;;;;;;5020627;28;20441;-78
2021/09/26 07:41:09;;;;;;;6.10;5.50;;;;;;;;;;5012899;28;20496;-77
2021/09/26 07:43:36;;;;;;;6.43;5.77;;;;;;;;;;5026781;28;20461;-81
2021/09/26 07:46:03;;;;;;;6.73;6.13;;;;;;;;;;5016196;28;20474;-78
2021/09/26 07:48:32;;;;;;;6.97;6.27;;;;;;;;;;5030566;28;20458;-81
2021/09/26 07:50:59;;;;;;;8.33;6.67;;;;;;;;;;5033540;28;20469;-82
2021/09/26 07:53:26;;;;;;;10.40;8.77;;;;;;;;;;5028406;28;20474;-82
2021/09/26 07:55:55;;;;;;;10.40;8.83;;;;;;;;;;5024743;28;20462;-80
2021/09/26 07:58:22;;;;;;;10.73;7.20;;;;;;;;;;5032206;28;21002;-80
2021/09/26 08:00:49;;;;;;;9.13;8.23;;;;;;;;;;5015853;28;20797;-79
2021/09/26 08:03:17;;;;;;;10.60;8.30;;;;;;;;;;5030600;28;20961;-83
2021/09/26 08:05:45;;;;;;;6.20;5.60;;;;;;;;;;5022105;28;20457;-80
2021/09/26 08:08:12;;;;;;;7.07;6.47;;;;;;;;;;5029789;28;20449;-79
2021/09/26 08:10:40;;;;;;;6.53;5.93;;;;;;;;;;5028152;28;20482;-81
2021/09/26 08:13:07;;;;;;;6.70;6.00;;;;;;;;;;5026250;28;20454;-80
2021/09/26 08:15:34;;;;;;;6.20;5.70;;;;;;;;;;5011390;28;20775;-80
2021/09/26 08:18:02;;;;;;;7.53;6.83;;;;;;;;;;5029315;28;20484;-80
2021/09/26 08:20:30;;;;;;;5.67;5.17;;;;;;;;;;5035418;28;20509;-80
2021/09/26 08:22:59;;;;;;;6.40;5.80;;;;;;;;;;5039100;28;20490;-77
2021/09/26 08:25:26;;;;;;;7.67;6.30;;;;;;;;;;5028445;28;20444;-80
2021/09/26 08:27:53;;;;;;;9.57;5.17;;;;;;;;;;5015406;28;20935;-78
2021/09/26 08:30:21;;;;;;;6.20;4.87;;;;;;;;;;5029400;28;20485;-80
2021/09/26 08:32:48;;;;;;;6.37;5.87;;;;;;;;;;5029227;28;20470;-84
2021/09/26 08:35:16;;;;;;;5.57;5.07;;;;;;;;;;5016901;28;20466;-76
2021/09/26 08:37:43;;;;;;;7.10;5.73;;;;;;;;;;5022846;28;20457;-79
2021/09/26 08:40:13;;;;;;;5.27;4.87;;;;;;;;;;5022494;28;20482;-79
2021/09/26 08:42:41;;;;;;;9.23;5.60;;;;;;;;;;5025086;28;20450;-76
2021/09/26 08:45:10;;;;;;;6.37;5.77;;;;;;;;;;5022879;28;20545;-82
2021/09/26 08:47:39;;;;;;;5.70;5.10;;;;;;;;;;5017330;28;20466;-78
2021/09/26 08:50:07;;;;;;;6.47;5.17;;;;;;;;;;5004912;28;20474;-78
2021/09/26 08:52:34;;;;;;;7.53;5.97;;;;;;;;;;5004328;28;20813;-82
2021/09/26 08:55:02;;;;;;;5.77;5.27;;;;;;;;;;5014733;28;20466;-79
2021/09/26 08:57:30;;;;;;;5.90;5.33;;;;;;;;;;5028444;28;20458;-82
2021/09/26 08:59:57;;;;;;;5.27;4.47;;;;;;;;;;5034395;28;20965;-82
2021/09/26 09:02:24;;;;;;;8.50;5.50;;;;;;;;;;5029419;28;20462;-80
2021/09/26 09:04:51;;;;;;;6.83;5.20;;;;;;;;;;5013458;28;20455;-78
2021/09/26 09:07:19;;;;;;;5.87;5.37;;;;;;;;;;5029987;28;20816;-78
2021/09/26 09:09:50;;;;;;;5.83;5.23;;;;;;;;;;5020411;28;20478;-81
2021/09/26 09:12:17;;;;;;;6.27;4.97;;;;;;;;;;5006744;28;20564;-80
2021/09/26 09:14:51;;;;;;;7.47;5.40;;;;;;;;;;5010192;28;20459;-77
2021/09/26 09:17:26;;;;;;;5.80;5.03;;;;;;;;;;5002306;28;20469;-79
2021/09/26 09:20:08;;;;;;;4.83;4.43;;;;;;;;;;5024197;28;20485;-82
2021/09/26 09:22:35;;;;;;;5.10;4.53;;;;;;;;;;5002299;28;20443;-78
2021/09/26 09:25:02;;;;;;;5.87;5.10;;;;;;;;;;5020828;28;20465;-80
2021/09/26 09:27:29;;;;;;;4.80;4.40;;;;;;;;;;5016680;28;20442;-78
2021/09/26 09:29:58;;;;;;;7.77;5.13;;;;;;;;;;4996136;28;20821;-81
2021/09/26 09:32:25;;;;;;;4.67;4.23;;;;;;;;;;5042131;28;20471;-79
2021/09/26 09:34:52;;;;;;;5.20;4.70;;;;;;;;;;5039036;28;20508;-82
2021/09/26 09:37:20;;;;;;;4.77;4.33;;;;;;;;;;5028575;28;20931;-82
2021/09/26 09:40:02;;;;;;;5.13;4.30;;;;;;;;;;5031511;28;20473;-81
2021/09/26 09:42:30;;;;;;;4.30;3.90;;;;;;;;;;5039238;28;20944;-79
2021/09/26 09:44:58;;;;;;;6.33;3.83;;;;;;;;;;5032137;28;20472;-78
2021/09/26 09:47:26;;;;;;;3.67;3.37;;;;;;;;;;5034789;28;20803;-79
2021/09/26 09:49:54;;;;;;;3.93;3.50;;;;;;;;;;5026528;28;20485;-79
2021/09/26 09:52:36;;;;;;;4.43;4.00;;;;;;;;;;5030098;28;20458;-81
2021/09/26 09:55:06;;;;;;;5.00;3.67;;;;;;;;;;5008347;28;20466;-84
2021/09/26 09:57:33;;;;;;;4.20;3.10;;;;;;;;;;5025741;28;20495;-81
2021/09/26 10:00:14;;;;;;;3.90;3.43;;;;;;;;;;5033282;28;20966;-83
2021/09/26 10:02:41;;;;;;;4.10;3.70;;;;;;;;;;5031409;28;20489;-81
2021/09/26 10:05:09;;;;;;;3.80;3.40;;;;;;;;;;5034818;28;20472;-80
2021/09/26 10:07:42;;;;;;;3.77;3.47;;;;;;;;;;5024719;28;20461;-81
2021/09/26 10:10:18;;;;;;;4.53;3.03;;;;;;;;;;5025521;28;20482;-81
2021/09/26 10:12:45;;;;;;;4.30;3.03;;;;;;;;;;5035511;28;21013;-85
2021/09/26 10:15:14;;;;;;;4.63;3.13;;;;;;;;;;5010465;28;20808;-80
2021/09/26 10:17:41;;;;;;;4.60;3.03;;;;;;;;;;5031264;28;20452;-83
2021/09/26 10:20:09;;;;;;;3.67;3.20;;;;;;;;;;5028542;28;20500;-78
2021/09/26 10:22:38;;;;;;;3.70;2.80;;;;;;;;;;5024463;28;20816;-79
2021/09/26 10:25:06;;;;;;;4.30;2.80;;;;;;;;;;5019935;28;20445;-80
2021/09/26 10:27:34;;;;;;;3.63;3.17;;;;;;;;;;5032457;28;20466;-81
2021/09/26 10:30:05;;;;;;;3.10;2.87;;;;;;;;;;5033652;28;20465;-81
2021/09/26 10:32:34;;;;;;;4.10;3.27;;;;;;;;;;5003972;28;20467;-83
2021/09/26 10:35:01;;;;;;;2.90;2.63;;;;;;;;;;5027479;28;20936;-80
2021/09/26 10:37:30;;;;;;;4.97;2.73;;;;;;;;;;5004789;28;20446;-78
2021/09/26 10:39:57;;;;;;;3.67;3.30;;;;;;;;;;5018630;28;20484;-83
2021/09/26 10:42:25;;;;;;;3.97;3.23;;;;;;;;;;5031695;28;20493;-83
2021/09/26 10:44:53;;;;;;;4.03;2.77;;;;;;;;;;5013085;28;20443;-82
2021/09/26 10:47:21;;;;;;;3.97;3.10;;;;;;;;;;5000619;28;20455;-81
2021/09/26 10:49:51;;;;;;;3.53;3.23;;;;;;;;;;5012470;28;20486;-82
2021/09/26 10:52:27;;;;;;;6.50;3.50;;;;;;;;;;5034856;28;20449;-90
2021/09/26 10:54:54;;;;;;;4.00;3.03;;;;;;;;;;5033042;28;20485;-78
2021/09/26 10:57:26;;;;;;;4.43;3.20;;;;;;;;;;5013234;28;20458;-79
2021/09/26 10:59:54;;;;;;;4.67;4.27;;;;;;;;;;5018892;28;21240;-79
2021/09/26 11:02:36;;;;;;;5.57;4.10;;;;;;;;;;5002931;28;20562;-81
2021/09/26 11:05:05;;;;;;;4.27;3.97;;;;;;;;;;5018390;28;20437;-82
2021/09/26 11:07:33;;;;;;;4.40;4.00;;;;;;;;;;5009563;28;20450;-80
2021/09/26 11:10:01;;;;;;;4.80;4.00;;;;;;;;;;5031687;28;20458;-84
2021/09/26 11:12:43;;;;;;;4.90;3.63;;;;;;;;;;4997270;28;20482;-79
2021/09/26 11:15:11;;;;;;;5.30;2.97;;;;;;;;;;4999883;28;20459;-83
2021/09/26 11:17:43;;;;;;;4.00;2.87;;;;;;;;;;5023293;28;20441;-75
2021/09/26 11:20:12;;;;;;;3.80;2.97;;;;;;;;;;5031765;28;20485;-84
2021/09/26 11:22:39;;;;;;;4.17;2.70;;;;;;;;;;5047373;28;20463;-82
2021/09/26 11:25:07;;;;;;;3.03;2.70;;;;;;;;;;5044682;28;20456;-87
2021/09/26 11:27:35;;;;;;;4.60;2.70;;;;;;;;;;5073044;28;20448;-82
2021/09/26 11:30:18;;;;;;;4.17;2.67;;;;;;;;;;5026522;28;20478;-85
2021/09/26 11:32:54;;;;;;;5.60;2.50;;;;;;;;;;5049590;28;20476;-80
2021/09/26 11:35:25;;;;;;;3.10;2.77;;;;;;;;;;5037739;28;20452;-86
2021/09/26 11:37:57;;;;;;;3.80;2.70;;;;;;;;;;5049023;28;20570;-81
2021/09/26 11:40:44;;;;;;;3.30;2.43;;;;;;;;;;5050743;28;20475;-79
2021/09/26 11:43:15;;;;;;;4.70;2.83;;;;;;;;;;5034407;28;20465;-77
2021/09/26 11:45:42;;;;;;;3.60;2.20;;;;;;;;;;5047170;28;20818;-83
2021/09/26 11:48:09;;;;;;;3.30;2.70;;;;;;;;;;5052742;28;20468;-85
2021/09/26 11:50:38;;;;;;;3.23;2.60;;;;;;;;;;5046582;28;20485;-77
2021/09/26 11:53:06;;;;;;;3.57;3.20;;;;;;;;;;5043621;28;20445;-79
2021/09/26 11:55:35;;;;;;;5.60;3.10;;;;;;;;;;5029400;28;20806;-76
2021/09/26 11:58:03;;;;;;;3.30;2.73;;;;;;;;;;5049788;28;20448;-77
2021/09/26 12:00:34;;;;;;;4.40;3.30;;;;;;;;;;5032808;28;21166;-76
2021/09/26 12:03:12;;;;;;;4.33;3.00;;;;;;;;;;5048824;28;20472;-77
2021/09/26 12:05:42;;;;;;;3.50;2.93;;;;;;;;;;5039487;28;20462;-78
2021/09/26 12:08:09;;;;;;;4.97;3.30;;;;;;;;;;5040544;28;20926;-78
2021/09/26 12:10:37;;;;;;;6.30;2.97;;;;;;;;;;5044797;28;20460;-77
2021/09/26 12:13:11;;;;;;;3.17;2.70;;;;;;;;;;5046836;28;21000;-78
2021/09/26 12:15:39;;;;;;;2.80;2.30;;;;;;;;;;5032220;28;20472;-79
2021/09/26 12:18:06;;;;;;;2.67;2.47;;;;;;;;;;5049124;28;20441;-75
2021/09/26 12:20:33;;;;;;;4.63;3.07;;;;;;;;;;5049687;28;20508;-79
2021/09/26 12:23:02;;;;;;;6.67;3.50;;;;;;;;;;5048834;28;20465;-78
2021/09/26 12:25:32;;;;;;;3.87;3.20;;;;;;;;;;5051092;28;20449;-78
2021/09/26 12:28:02;;;;;;;4.30;2.80;;;;;;;;;;5031993;28;20807;-80
2021/09/26 12:30:30;;;;;;;3.47;2.60;;;;;;;;;;5043315;28;20457;-79
2021/09/26 12:33:00;;;;;;;3.03;2.47;;;;;;;;;;5019210;28;20438;-78
2021/09/26 12:35:29;;;;;;;3.93;2.80;;;;;;;;;;5030154;28;20778;-81
2021/09/26 12:37:58;;;;;;;3.00;2.70;;;;;;;;;;5051682;28;20799;-80
2021/09/26 12:40:27;;;;;;;4.97;3.17;;;;;;;;;;5067176;28;20984;-80
2021/09/26 12:42:58;;;;;;;4.10;3.20;;;;;;;;;;5046545;28;20453;-80
2021/09/26 12:45:31;;;;;;;3.33;3.03;;;;;;;;;;5054239;28;20456;-87
2021/09/26 12:47:59;;;;;;;6.03;3.03;;;;;;;;;;5063538;28;20460;-85
2021/09/26 12:50:27;;;;;;;5.80;3.00;;;;;;;;;;5069225;28;21087;-82
2021/09/26 12:52:55;;;;;;;4.57;3.10;;;;;;;;;;5015871;28;20473;-83
2021/09/26 12:55:24;;;;;;;6.50;3.20;;;;;;;;;;5035291;28;20813;-82
2021/09/26 12:57:52;;;;;;;4.33;3.03;;;;;;;;;;5012526;28;20434;-84
2021/09/26 13:00:21;;;;;;;3.17;2.93;;;;;;;;;;5031762;28;20974;-84
2021/09/26 13:02:54;;;;;;;4.13;2.87;;;;;;;;;;5042540;28;20577;-83
2021/09/26 13:05:27;;;;;;;3.70;3.40;;;;;;;;;;5044431;28;20497;-84
2021/09/26 13:08:00;;;;;;;3.63;3.33;;;;;;;;;;5026888;28;20443;-83
2021/09/26 13:10:27;;;;;;;3.83;3.50;;;;;;;;;;5041543;28;20453;-82
2021/09/26 13:12:54;;;;;;;4.00;3.50;;;;;;;;;;5049627;28;20445;-80
2021/09/26 13:15:32;;;;;;;3.40;2.87;;;;;;;;;;5050290;28;20553;-80
2021/09/26 13:18:14;;;;;;;3.57;3.27;;;;;;;;;;5034248;28;20451;-84
2021/09/26 13:20:43;;;;;;;3.53;3.23;;;;;;;;;;5030410;28;20466;-81
2021/09/26 13:23:25;;;;;;;4.50;3.40;;;;;;;;;;5032955;28;20449;-83
2021/09/26 13:25:53;;;;;;;4.03;3.63;;;;;;;;;;5030950;28;20469;-82
2021/09/26 13:28:21;;;;;;;4.97;3.90;;;;;;;;;;5028807;28;20453;-84
2021/09/26 13:31:01;;;;;;;4.57;4.00;;;;;;;;;;5014786;28;20464;-83
2021/09/26 13:33:31;;;;;;;4.47;4.07;;;;;;;;;;5039404;28;20445;-85
2021/09/26 13:36:07;;;;;;;3.87;3.57;;;;;;;;;;5032301;28;20484;-87
2021/09/26 13:38:34;;;;;;;4.60;3.30;;;;;;;;;;5051111;28;20798;-84
2021/09/26 13:41:16;;;;;;;4.07;3.77;;;;;;;;;;5051352;28;20461;-86
2021/09/26 13:43:44;;;;;;;4.67;4.00;;;;;;;;;;5024016;28;20489;-85
2021/09/26 13:46:12;;;;;;;4.67;4.20;;;;;;;;;;5015625;28;20469;-83
2021/09/26 13:48:39;;;;;;;6.00;5.00;;;;;;;;;;5044431;28;20464;-85
2021/09/26 13:51:10;;;;;;;4.27;3.87;;;;;;;;;;5049538;28;20552;-84
2021/09/26 13:53:39;;;;;;;5.03;4.43;;;;;;;;;;5040428;28;20429;-81
2021/09/26 13:56:07;;;;;;;6.10;4.33;;;;;;;;;;5017029;28;20469;-77
2021/09/26 13:58:35;;;;;;;4.90;3.97;;;;;;;;;;5048225;28;20858;-78
2021/09/26 14:01:03;;;;;;;5.00;4.47;;;;;;;;;;5049421;28;20521;-82
2021/09/26 14:03:30;;;;;;;4.80;4.40;;;;;;;;;;5048555;28;20524;-83
2021/09/26 14:05:57;;;;;;;4.93;4.30;;;;;;;;;;5044679;28;20434;-81
2021/09/26 14:08:25;;;;;;;7.30;5.10;;;;;;;;;;5052921;28;20449;-79
2021/09/26 14:10:53;;;;;;;6.57;5.00;;;;;;;;;;5052454;28;20465;-83
2021/09/26 14:13:20;;;;;;;6.47;4.50;;;;;;;;;;5053331;28;20941;-79
2021/09/26 14:15:48;;;;;;;5.17;4.40;;;;;;;;;;5042404;28;20457;-81
2021/09/26 14:18:16;;;;;;;5.73;4.17;;;;;;;;;;5022668;28;20452;-82
2021/09/26 14:20:43;;;;;;;5.20;4.80;;;;;;;;;;5054024;28;20483;-79
2021/09/26 14:23:11;;;;;;;5.10;4.70;;;;;;;;;;5054262;28;20484;-80
2021/09/26 14:25:40;;;;;;;5.50;5.00;;;;;;;;;;5027760;28;20937;-83
2021/09/26 14:28:08;;;;;;;5.13;4.63;;;;;;;;;;5033723;28;20465;-79
2021/09/26 14:30:36;;;;;;;7.33;5.17;;;;;;;;;;5051485;28;20458;-79
2021/09/26 14:33:03;;;;;;;5.73;5.13;;;;;;;;;;5036369;28;20997;-80
2021/09/26 14:35:30;;;;;;;6.00;5.07;;;;;;;;;;5036447;28;20450;-81
2021/09/26 14:37:58;;;;;;;6.10;5.50;;;;;;;;;;5051587;28;20849;-82
2021/09/26 14:40:26;;;;;;;6.57;5.40;;;;;;;;;;5032286;28;20552;-82
2021/09/26 14:42:55;;;;;;;5.30;4.80;;;;;;;;;;5013049;28;20482;-80
2021/09/26 14:45:23;;;;;;;6.50;5.90;;;;;;;;;;5016471;28;20447;-82
2021/09/26 14:47:51;;;;;;;6.13;5.53;;;;;;;;;;5021347;28;20462;-81
2021/09/26 14:50:18;;;;;;;6.37;5.50;;;;;;;;;;5031954;28;20474;-79
2021/09/26 14:52:45;;;;;;;6.00;4.90;;;;;;;;;;5030198;28;20803;-79